Time;durP1;ratioP1;P1;durP2;ratioP2;P2;SDS_P1;SDS_P2;PMS_P1;PMS_P2;Temp;Humidity;BMP_temperature;BMP_pressure;BME280_temperature;BME280_humidity;BME280_pressure;Samples;Min_cycle;Max_cycle;Signal;HPM_P1;HPM_P2
2021/10/23 00:01:31;;;;;;;16.50;2.20;;;;;;;5.38;86.03;101362.40;115688;1192;60594;-77
2021/10/23 00:03:58;;;;;;;7.60;1.40;;;;;;;5.39;86.05;101369.52;115791;1192;74339;-79
2021/10/23 00:06:25;;;;;;;14.30;2.30;;;;;;;5.41;86.07;101367.17;115795;1192;72196;-78
2021/10/23 00:08:51;;;;;;;11.70;2.30;;;;;;;5.43;86.17;101369.14;115799;1191;72445;-77
2021/10/23 00:11:18;;;;;;;12.60;2.70;;;;;;;5.44;86.15;101361.89;115884;1192;60975;-77
2021/10/23 00:13:44;;;;;;;15.00;2.20;;;;;;;5.44;86.02;101363.47;115732;1192;58854;-77
2021/10/23 00:16:11;;;;;;;11.30;1.30;;;;;;;5.45;85.78;101367.77;115809;1191;75763;-78
2021/10/23 00:18:38;;;;;;;13.30;1.90;;;;;;;5.43;85.71;101372.12;115504;1192;72076;-78
2021/10/23 00:21:04;;;;;;;22.80;2.80;;;;;;;5.42;85.61;101370.96;115675;1192;59064;-77
2021/10/23 00:23:31;;;;;;;10.60;1.90;;;;;;;5.42;85.79;101380.84;115774;1192;62994;-77
2021/10/23 00:25:58;;;;;;;8.10;1.20;;;;;;;5.41;85.60;101372.97;115820;1192;60919;-78
2021/10/23 00:28:24;;;;;;;5.40;1.10;;;;;;;5.39;85.78;101374.02;115889;1191;75640;-77
2021/10/23 00:30:51;;;;;;;19.30;2.30;;;;;;;5.37;85.81;101378.40;115837;1192;58858;-77
2021/10/23 00:33:18;;;;;;;11.10;2.20;;;;;;;5.36;85.81;101374.98;115791;1192;73946;-77
2021/10/23 00:35:44;;;;;;;18.60;2.80;;;;;;;5.35;85.80;101375.74;115447;1191;60736;-77
2021/10/23 00:38:11;;;;;;;13.30;2.30;;;;;;;5.34;85.83;101376.37;115714;1191;60189;-77
2021/10/23 00:40:38;;;;;;;14.90;2.90;;;;;;;5.32;85.90;101380.90;115831;1192;75355;-78
2021/10/23 00:43:04;;;;;;;10.90;1.80;;;;;;;5.30;85.89;101388.23;115790;1192;70991;-77
2021/10/23 00:45:31;;;;;;;15.10;2.70;;;;;;;5.29;85.97;101389.68;115864;1191;73587;-77
2021/10/23 00:47:58;;;;;;;21.50;3.60;;;;;;;5.29;86.06;101393.96;115821;1192;62761;-77
2021/10/23 00:50:25;;;;;;;9.80;1.20;;;;;;;5.28;85.90;101390.71;115828;1191;58734;-78
2021/10/23 00:52:51;;;;;;;20.60;3.50;;;;;;;5.27;85.89;101396.16;115768;1191;75580;-77
2021/10/23 00:55:20;;;;;;;12.70;2.60;;;;;;;5.25;85.83;101398.27;115615;1191;71213;-77
2021/10/23 00:57:47;;;;;;;11.50;1.80;;;;;;;5.25;85.96;101397.98;115787;1191;72618;-77
2021/10/23 01:00:14;;;;;;;22.20;4.10;;;;;;;5.24;85.96;101398.76;115755;1192;61597;-77
2021/10/23 01:02:40;;;;;;;16.30;3.40;;;;;;;5.23;85.93;101400.19;115810;1191;58801;-77
2021/10/23 01:05:08;;;;;;;10.50;1.50;;;;;;;5.23;86.10;101401.60;115857;1191;74498;-77
2021/10/23 01:07:36;;;;;;;20.10;2.20;;;;;;;5.20;86.11;101405.52;115844;1191;70977;-77
2021/10/23 01:10:09;;;;;;;9.60;2.00;;;;;;;5.19;86.14;101404.73;115672;1192;72942;-77
2021/10/23 01:12:39;;;;;;;6.30;1.90;;;;;;;5.20;85.96;101406.74;115769;1191;61993;-77
2021/10/23 01:15:20;;;;;;;11.20;1.60;;;;;;;5.19;85.95;101410.85;115811;1191;61303;-77
2021/10/23 01:17:47;;;;;;;14.50;2.20;;;;;;;5.19;86.01;101408.77;115802;1191;74334;-77
2021/10/23 01:20:14;;;;;;;23.50;5.30;;;;;;;5.17;85.84;101410.52;115791;1192;72010;-78
2021/10/23 01:22:41;;;;;;;15.90;2.20;;;;;;;5.18;86.06;101407.83;115827;1191;72517;-77
2021/10/23 01:25:10;;;;;;;14.60;2.10;;;;;;;5.17;86.00;101411.39;115779;1192;63476;-77
2021/10/23 01:27:39;;;;;;;16.70;2.30;;;;;;;5.16;85.95;101411.80;115612;1192;61233;-77
2021/10/23 01:30:07;;;;;;;11.80;2.30;;;;;;;5.17;86.06;101414.05;115747;1192;74575;-77
2021/10/23 01:32:34;;;;;;;10.00;2.60;;;;;;;5.16;85.94;101413.61;115830;1192;72063;-78
2021/10/23 01:35:02;;;;;;;21.10;3.40;;;;;;;5.13;85.97;101416.11;115731;1192;72530;-77
2021/10/23 01:37:44;;;;;;;10.60;1.90;;;;;;;5.13;85.91;101417.85;115824;1192;61980;-78
2021/10/23 01:40:17;;;;;;;12.30;2.00;;;;;;;5.14;85.87;101415.46;115842;1192;61057;-78
2021/10/23 01:42:44;;;;;;;21.10;2.70;;;;;;;5.15;85.82;101420.87;115850;1192;74631;-78
2021/10/23 01:45:11;;;;;;;11.60;2.00;;;;;;;5.16;85.76;101421.11;115839;1192;70949;-78
2021/10/23 01:47:39;;;;;;;9.00;1.90;;;;;;;5.16;85.67;101421.45;115669;1192;72289;-77
2021/10/23 01:50:18;;;;;;;13.80;2.10;;;;;;;5.16;85.63;101429.54;115779;1192;62904;-77
2021/10/23 01:52:45;;;;;;;17.70;3.70;;;;;;;5.17;85.46;101438.44;115909;1192;60264;-77
2021/10/23 01:55:13;;;;;;;24.60;2.90;;;;;;;5.20;85.43;101447.48;115811;1192;75303;-78
2021/10/23 01:57:40;;;;;;;11.20;1.90;;;;;;;5.20;85.46;101451.13;115856;1191;72738;-77
2021/10/23 02:00:09;;;;;;;11.80;1.90;;;;;;;5.20;85.60;101455.49;115805;1192;73549;-77
2021/10/23 02:02:36;;;;;;;14.20;2.20;;;;;;;5.19;85.56;101457.19;115694;1192;62117;-77
2021/10/23 02:05:03;;;;;;;11.20;2.10;;;;;;;5.18;85.57;101458.61;115756;1192;60233;-77
2021/10/23 02:07:30;;;;;;;8.00;1.50;;;;;;;5.18;85.58;101467.41;115581;1192;74770;-77
2021/10/23 02:09:57;;;;;;;9.90;2.30;;;;;;;5.18;85.65;101475.33;115716;1192;71024;-78
2021/10/23 02:12:24;;;;;;;11.90;2.00;;;;;;;5.18;85.65;101467.60;115674;1193;73648;-77
2021/10/23 02:14:50;;;;;;;12.30;2.70;;;;;;;5.17;85.61;101472.92;115822;1192;62056;-77
2021/10/23 02:17:17;;;;;;;7.90;1.30;;;;;;;5.17;85.69;101478.02;115864;1192;59049;-77
2021/10/23 02:19:44;;;;;;;9.90;1.70;;;;;;;5.17;85.79;101477.31;115864;1192;74636;-77
2021/10/23 02:22:10;;;;;;;12.90;1.80;;;;;;;5.16;85.82;101474.59;115839;1192;58894;-78
2021/10/23 02:24:37;;;;;;;10.60;2.70;;;;;;;5.14;85.92;101481.40;115748;1192;58752;-78
2021/10/23 02:27:03;;;;;;;13.90;1.90;;;;;;;5.14;86.13;101482.66;115273;1193;59114;-78
2021/10/23 02:29:30;;;;;;;18.50;2.40;;;;;;;5.13;86.07;101481.65;115843;1192;59914;-77
2021/10/23 02:31:56;;;;;;;14.60;2.00;;;;;;;5.15;86.22;101493.93;115860;1192;58827;-77
2021/10/23 02:34:23;;;;;;;12.20;2.30;;;;;;;5.19;86.20;101499.27;115865;1192;72020;-77
2021/10/23 02:36:50;;;;;;;6.40;1.30;;;;;;;5.21;86.21;101505.02;115733;1192;73588;-77
2021/10/23 02:39:16;;;;;;;10.10;1.60;;;;;;;5.24;86.10;101506.20;115876;1192;59024;-77
2021/10/23 02:41:43;;;;;;;10.00;2.50;;;;;;;5.27;86.26;101506.53;115863;1192;58902;-77
2021/10/23 02:44:09;;;;;;;12.90;1.80;;;;;;;5.30;86.13;101514.70;115566;1192;59150;-79
2021/10/23 02:46:36;;;;;;;11.60;1.80;;;;;;;5.33;86.09;101511.65;115822;1192;59091;-78
2021/10/23 02:49:04;;;;;;;12.70;2.50;;;;;;;5.37;86.05;101518.77;115851;1192;59027;-78
2021/10/23 02:51:30;;;;;;;16.20;1.90;;;;;;;5.39;86.00;101514.52;115820;1192;62157;-77
2021/10/23 02:53:57;;;;;;;10.40;1.30;;;;;;;5.41;85.87;101511.08;115897;1192;58933;-78
2021/10/23 02:56:25;;;;;;;12.90;1.80;;;;;;;5.41;85.79;101512.09;115866;1192;74670;-77
2021/10/23 02:58:52;;;;;;;11.80;1.20;;;;;;;5.40;85.86;101514.13;115937;1192;71286;-79
2021/10/23 03:01:22;;;;;;;13.30;1.80;;;;;;;5.38;85.68;101518.12;115720;1192;72908;-77
2021/10/23 03:03:50;;;;;;;11.30;2.20;;;;;;;5.37;85.77;101525.40;115638;1192;61794;-78
2021/10/23 03:06:18;;;;;;;13.60;3.50;;;;;;;5.35;85.83;101522.55;115844;1192;60374;-78
2021/10/23 03:08:46;;;;;;;16.70;2.60;;;;;;;5.32;86.03;101524.34;115870;1192;75455;-77
2021/10/23 03:11:13;;;;;;;16.30;1.50;;;;;;;5.28;86.18;101521.48;115907;1192;71041;-77
2021/10/23 03:13:41;;;;;;;12.30;2.30;;;;;;;5.26;86.06;101523.25;115861;1192;71273;-77
2021/10/23 03:16:09;;;;;;;14.30;2.30;;;;;;;5.23;86.34;101525.61;115882;1192;62894;-77
2021/10/23 03:18:36;;;;;;;9.70;2.60;;;;;;;5.20;86.45;101531.96;115812;1192;60936;-77
2021/10/23 03:21:04;;;;;;;17.60;2.60;;;;;;;5.18;86.45;101535.46;115671;1191;74720;-78
2021/10/23 03:23:31;;;;;;;7.90;1.30;;;;;;;5.18;86.62;101537.74;115831;1192;71159;-76
2021/10/23 03:25:58;;;;;;;11.10;1.80;;;;;;;5.15;86.78;101539.55;115879;1192;73897;-77
2021/10/23 03:28:24;;;;;;;7.10;1.10;;;;;;;5.15;86.76;101534.62;115697;1192;62476;-77
2021/10/23 03:30:51;;;;;;;16.20;2.10;;;;;;;5.14;86.82;101539.30;115846;1192;60743;-77
2021/10/23 03:33:17;;;;;;;9.20;1.30;;;;;;;5.13;86.96;101547.92;115842;1192;75801;-78
2021/10/23 03:35:44;;;;;;;16.80;2.60;;;;;;;5.12;86.95;101551.70;115948;1192;71531;-77
2021/10/23 03:38:11;;;;;;;15.40;1.90;;;;;;;5.12;87.06;101547.65;115909;1192;72922;-77
2021/10/23 03:40:37;;;;;;;15.00;2.60;;;;;;;5.09;87.16;101553.30;115518;1192;62825;-77
2021/10/23 03:43:04;;;;;;;10.20;2.80;;;;;;;5.07;87.28;101551.54;115871;1192;60895;-77
2021/10/23 03:45:30;;;;;;;15.20;2.20;;;;;;;5.05;87.39;101548.39;115710;1192;59321;-77
2021/10/23 03:47:57;;;;;;;20.30;1.90;;;;;;;5.02;87.54;101548.77;115978;1192;72078;-77
2021/10/23 03:50:24;;;;;;;8.40;1.40;;;;;;;4.99;87.64;101546.71;115875;1192;73642;-76
2021/10/23 03:52:51;;;;;;;10.00;2.20;;;;;;;4.98;87.92;101548.91;115876;1192;63475;-77
2021/10/23 03:55:17;;;;;;;9.10;1.00;;;;;;;4.96;87.92;101555.71;115962;1192;61049;-77
2021/10/23 03:57:44;;;;;;;22.00;2.50;;;;;;;4.95;88.14;101557.58;115949;1192;60551;-77
2021/10/23 04:00:11;;;;;;;2.80;1.00;;;;;;;4.94;88.23;101544.13;115186;1192;72017;-78
2021/10/23 04:02:38;;;;;;;8.40;1.70;;;;;;;4.93;88.14;101545.78;115880;1192;72668;-77
2021/10/23 04:05:05;;;;;;;13.00;2.10;;;;;;;4.92;88.23;101543.09;115938;1192;63075;-77
2021/10/23 04:07:33;;;;;;;20.90;2.60;;;;;;;4.92;88.39;101546.77;115981;1191;61214;-77
2021/10/23 04:10:01;;;;;;;5.40;1.90;;;;;;;4.92;88.33;101542.92;115996;1191;75849;-77
2021/10/23 04:12:28;;;;;;;17.30;2.70;;;;;;;4.92;88.37;101548.02;115961;1192;71010;-77
2021/10/23 04:14:55;;;;;;;14.60;3.00;;;;;;;4.90;88.49;101553.55;115826;1192;73587;-77
2021/10/23 04:17:21;;;;;;;11.40;1.50;;;;;;;4.88;88.46;101544.38;115644;1193;61946;-77
2021/10/23 04:19:48;;;;;;;14.40;2.80;;;;;;;4.87;88.38;101542.05;115941;1192;58844;-77
2021/10/23 04:22:14;;;;;;;13.20;2.70;;;;;;;4.83;88.47;101551.82;115955;1192;74616;-77
2021/10/23 04:24:41;;;;;;;10.30;3.00;;;;;;;4.80;88.56;101561.16;115956;1192;59308;-77
2021/10/23 04:27:07;;;;;;;15.10;2.60;;;;;;;4.76;88.65;101563.70;115881;1192;73724;-78
2021/10/23 04:29:35;;;;;;;17.50;3.00;;;;;;;4.71;88.81;101567.42;115974;1192;61198;-78
2021/10/23 04:32:02;;;;;;;11.60;3.10;;;;;;;4.66;88.92;101569.71;115963;1191;60309;-77
2021/10/23 04:34:29;;;;;;;8.90;2.80;;;;;;;4.62;89.15;101566.89;115920;1192;74383;-77
2021/10/23 04:36:56;;;;;;;14.80;2.70;;;;;;;4.60;89.41;101568.25;115113;1192;71130;-77
2021/10/23 04:39:22;;;;;;;14.30;2.90;;;;;;;4.59;89.53;101565.69;115948;1192;73050;-77
2021/10/23 04:41:49;;;;;;;19.00;3.10;;;;;;;4.59;89.61;101568.89;115932;1192;59054;-77
2021/10/23 04:44:15;;;;;;;19.60;3.90;;;;;;;4.58;89.60;101571.40;115944;1192;58855;-77
2021/10/23 04:46:42;;;;;;;23.40;4.10;;;;;;;4.58;89.94;101576.81;115931;1192;59035;-77
2021/10/23 04:49:08;;;;;;;18.80;3.20;;;;;;;4.57;89.94;101576.69;115941;1192;70745;-77
2021/10/23 04:51:35;;;;;;;18.00;3.70;;;;;;;4.57;90.02;101577.04;115955;1192;58889;-78
2021/10/23 04:54:01;;;;;;;14.80;2.90;;;;;;;4.56;89.97;101579.77;115840;1192;61690;-78
2021/10/23 04:56:28;;;;;;;17.00;2.70;;;;;;;4.54;90.07;101576.92;115648;1192;59132;-78
2021/10/23 04:58:54;;;;;;;14.40;2.60;;;;;;;4.53;90.15;101576.16;115959;1192;58840;-78
2021/10/23 05:01:22;;;;;;;14.00;3.10;;;;;;;4.53;90.27;101571.23;115851;1192;71206;-78
2021/10/23 05:03:49;;;;;;;16.80;2.80;;;;;;;4.54;90.32;101567.83;115656;1192;73657;-78
2021/10/23 05:06:16;;;;;;;12.30;2.40;;;;;;;4.56;90.26;101570.11;115927;1192;61963;-77
2021/10/23 05:08:42;;;;;;;11.20;2.80;;;;;;;4.61;90.48;101568.71;115960;1192;59989;-77
2021/10/23 05:11:09;;;;;;;14.50;3.10;;;;;;;4.66;90.27;101578.30;115858;1192;75850;-77
2021/10/23 05:13:36;;;;;;;8.80;2.20;;;;;;;4.71;90.14;101585.83;115978;1192;70723;-77
2021/10/23 05:16:03;;;;;;;24.60;3.00;;;;;;;4.74;90.16;101587.00;115606;1191;73497;-78
2021/10/23 05:18:29;;;;;;;14.40;1.90;;;;;;;4.76;90.18;101593.31;115902;1191;63000;-78
2021/10/23 05:20:56;;;;;;;6.40;1.10;;;;;;;4.80;90.09;101587.93;115957;1192;60130;-78
2021/10/23 05:23:23;;;;;;;11.40;2.80;;;;;;;4.84;90.12;101592.52;115952;1192;74146;-77
2021/10/23 05:25:50;;;;;;;11.00;2.30;;;;;;;4.88;89.89;101590.98;115995;1192;58965;-77
2021/10/23 05:28:16;;;;;;;13.70;2.90;;;;;;;4.94;89.88;101594.33;115904;1192;58875;-77
2021/10/23 05:30:43;;;;;;;11.50;1.50;;;;;;;4.99;89.70;101595.64;115964;1192;63565;-77
2021/10/23 05:33:10;;;;;;;16.60;2.60;;;;;;;5.04;89.45;101591.78;115946;1192;61221;-77
2021/10/23 05:35:36;;;;;;;15.90;3.60;;;;;;;5.07;89.32;101592.91;115497;1192;75645;-77
2021/10/23 05:38:03;;;;;;;14.80;2.30;;;;;;;5.12;89.24;101591.17;115990;1191;71980;-78
2021/10/23 05:40:31;;;;;;;16.10;2.40;;;;;;;5.16;89.07;101596.30;115956;1192;58893;-77
2021/10/23 05:42:57;;;;;;;11.70;2.60;;;;;;;5.20;88.93;101604.24;115745;1192;61929;-78
2021/10/23 05:45:24;;;;;;;11.80;2.70;;;;;;;5.22;88.84;101610.16;115982;1192;61255;-77
2021/10/23 05:47:51;;;;;;;18.10;3.00;;;;;;;5.25;88.68;101607.89;115969;1192;75634;-77
2021/10/23 05:50:17;;;;;;;19.80;2.60;;;;;;;5.26;88.74;101615.70;115606;1192;68882;-78
2021/10/23 05:52:44;;;;;;;13.80;2.50;;;;;;;5.26;88.84;101615.80;115808;1192;72556;-77
2021/10/23 05:55:11;;;;;;;10.10;2.00;;;;;;;5.29;88.74;101618.27;115918;1192;62915;-77
2021/10/23 05:57:37;;;;;;;27.50;2.60;;;;;;;5.30;88.75;101619.05;115667;1193;60057;-77
2021/10/23 06:00:07;;;;;;;13.40;4.40;;;;;;;5.30;88.66;101623.27;115972;1192;76095;-77
2021/10/23 06:02:34;;;;;;;10.70;2.40;;;;;;;5.30;88.76;101628.14;115901;1192;70228;-78
2021/10/23 06:05:01;;;;;;;19.00;2.80;;;;;;;5.32;88.76;101632.60;115969;1192;72535;-78
2021/10/23 06:07:36;;;;;;;17.60;2.50;;;;;;;5.34;88.59;101634.89;115977;1192;62116;-77
2021/10/23 06:10:04;;;;;;;14.10;2.00;;;;;;;5.36;88.60;101635.27;115937;1191;61598;-78
2021/10/23 06:12:32;;;;;;;11.10;2.20;;;;;;;5.39;88.56;101640.80;115754;1191;74513;-77
2021/10/23 06:14:59;;;;;;;18.90;2.60;;;;;;;5.42;88.57;101645.86;115976;1192;72151;-79
2021/10/23 06:17:26;;;;;;;12.80;2.80;;;;;;;5.44;88.45;101647.48;115995;1192;73547;-77
2021/10/23 06:19:53;;;;;;;11.40;2.80;;;;;;;5.45;88.34;101657.23;115959;1191;62141;-78
2021/10/23 06:22:19;;;;;;;13.20;1.90;;;;;;;5.46;88.25;101666.41;115947;1192;61200;-77
2021/10/23 06:24:46;;;;;;;18.40;3.00;;;;;;;5.48;88.01;101677.11;115956;1192;76120;-77
2021/10/23 06:27:12;;;;;;;14.80;2.70;;;;;;;5.53;88.05;101673.59;115916;1192;69859;-77
2021/10/23 06:29:39;;;;;;;7.90;2.60;;;;;;;5.56;87.76;101676.73;115624;1192;73615;-78
2021/10/23 06:32:06;;;;;;;6.40;1.80;;;;;;;5.59;87.69;101676.17;115885;1192;61962;-77
2021/10/23 06:34:32;;;;;;;11.30;2.30;;;;;;;5.61;87.53;101676.02;115969;1192;59012;-77
2021/10/23 06:36:59;;;;;;;16.70;2.20;;;;;;;5.61;87.50;101678.61;115957;1192;74584;-77
2021/10/23 06:39:25;;;;;;;13.50;2.50;;;;;;;5.61;87.55;101681.73;115978;1192;71133;-78
2021/10/23 06:41:52;;;;;;;17.10;4.00;;;;;;;5.64;87.56;101693.13;115852;1192;72562;-78
2021/10/23 06:44:18;;;;;;;21.90;3.40;;;;;;;5.65;87.46;101693.39;115935;1191;62889;-78
2021/10/23 06:46:45;;;;;;;13.40;2.50;;;;;;;5.70;87.10;101698.77;115866;1192;61373;-78
2021/10/23 06:49:12;;;;;;;22.70;2.40;;;;;;;5.78;87.24;101698.73;115715;1192;59626;-77
2021/10/23 06:51:38;;;;;;;15.10;2.70;;;;;;;5.83;86.96;101699.73;115968;1192;72530;-77
2021/10/23 06:54:05;;;;;;;11.60;3.10;;;;;;;5.94;86.43;101696.64;115953;1192;58879;-77
2021/10/23 06:56:32;;;;;;;14.20;2.70;;;;;;;6.03;86.31;101700.98;115931;1192;61907;-77
2021/10/23 06:58:58;;;;;;;9.50;2.60;;;;;;;6.08;86.25;101704.98;115953;1192;60361;-77
2021/10/23 07:01:25;;;;;;;18.10;2.60;;;;;;;6.13;86.32;101713.40;115956;1192;73635;-77
2021/10/23 07:03:55;;;;;;;16.40;3.40;;;;;;;6.18;85.90;101721.98;115624;1192;70753;-77
2021/10/23 07:06:22;;;;;;;21.40;2.90;;;;;;;6.25;85.96;101731.77;115495;1192;72582;-78
2021/10/23 07:08:49;;;;;;;15.50;2.30;;;;;;;6.36;85.61;101737.39;115911;1192;60589;-78
2021/10/23 07:11:19;;;;;;;18.50;3.90;;;;;;;6.46;85.04;101741.36;115994;1192;60291;-77
2021/10/23 07:13:46;;;;;;;20.10;2.60;;;;;;;6.54;84.93;101749.36;115947;1192;59635;-77
2021/10/23 07:16:13;;;;;;;9.60;2.30;;;;;;;6.62;84.72;101751.02;115863;1192;71087;-77
2021/10/23 07:18:40;;;;;;;8.40;1.90;;;;;;;6.69;84.23;101759.04;115936;1191;58961;-78
2021/10/23 07:21:06;;;;;;;17.10;2.80;;;;;;;6.75;84.13;101759.94;115851;1192;61764;-77
2021/10/23 07:23:33;;;;;;;7.40;2.00;;;;;;;6.82;83.94;101763.95;115717;1192;60967;-77
2021/10/23 07:26:00;;;;;;;14.50;2.90;;;;;;;6.89;83.55;101760.04;115842;1192;74709;-77
2021/10/23 07:28:27;;;;;;;11.40;2.60;;;;;;;6.94;83.42;101766.70;115902;1192;71025;-78
2021/10/23 07:30:53;;;;;;;10.20;1.90;;;;;;;6.97;83.44;101770.36;115951;1192;58853;-78
2021/10/23 07:33:20;;;;;;;7.80;2.60;;;;;;;6.97;82.92;101776.98;115560;1192;59001;-78
2021/10/23 07:35:47;;;;;;;16.80;2.70;;;;;;;6.99;83.00;101782.67;115925;1192;58632;-78
2021/10/23 07:38:15;;;;;;;12.00;1.80;;;;;;;6.99;82.72;101782.46;115980;1192;75119;-78
2021/10/23 07:40:43;;;;;;;10.60;1.80;;;;;;;7.03;82.90;101782.36;115712;1192;72110;-78
2021/10/23 07:43:12;;;;;;;12.90;2.40;;;;;;;7.07;83.19;101788.83;115897;1192;73800;-77
2021/10/23 07:45:39;;;;;;;13.60;1.60;;;;;;;7.15;82.25;101789.46;115805;1192;61928;-77
2021/10/23 07:48:06;;;;;;;13.80;1.60;;;;;;;7.25;81.84;101796.00;115953;1192;59981;-77
2021/10/23 07:50:32;;;;;;;14.90;1.80;;;;;;;7.36;82.24;101799.89;115918;1192;58975;-77
2021/10/23 07:53:02;;;;;;;15.50;1.80;;;;;;;7.46;81.41;101806.64;115885;1191;71303;-77
2021/10/23 07:55:32;;;;;;;6.70;1.40;;;;;;;7.54;80.61;101813.31;115625;1192;71301;-77
2021/10/23 07:58:02;;;;;;;8.20;1.60;;;;;;;7.63;80.42;101813.41;115899;1192;62912;-78
2021/10/23 08:00:29;;;;;;;4.10;0.70;;;;;;;7.69;80.08;101820.01;115659;1192;60959;-77
2021/10/23 08:03:03;;;;;;;11.30;1.90;;;;;;;7.73;79.81;101825.46;115948;1192;75619;-77
2021/10/23 08:05:33;;;;;;;14.90;2.00;;;;;;;7.79;79.22;101822.52;115993;1192;72018;-77
2021/10/23 08:08:02;;;;;;;8.70;2.00;;;;;;;7.88;79.35;101827.40;115944;1192;73730;-77
2021/10/23 08:10:31;;;;;;;16.90;1.90;;;;;;;7.97;78.97;101833.48;115802;1192;61948;-77
2021/10/23 08:13:04;;;;;;;12.60;2.10;;;;;;;8.04;78.40;101833.46;115923;1191;61580;-77
2021/10/23 08:15:32;;;;;;;14.10;2.40;;;;;;;8.18;78.48;101835.96;115732;1192;75680;-77
2021/10/23 08:18:01;;;;;;;18.30;2.10;;;;;;;8.30;77.71;101842.52;115768;1192;72040;-78
2021/10/23 08:20:31;;;;;;;8.20;1.60;;;;;;;8.36;77.23;101846.18;115863;1192;72412;-78
2021/10/23 08:22:57;;;;;;;7.80;1.90;;;;;;;8.35;76.83;101844.48;115919;1192;62205;-78
2021/10/23 08:25:24;;;;;;;12.50;2.30;;;;;;;8.37;76.30;101849.31;115940;1192;60704;-78
2021/10/23 08:27:50;;;;;;;8.80;1.20;;;;;;;8.45;76.30;101854.26;115920;1191;59325;-78
2021/10/23 08:30:20;;;;;;;9.70;1.40;;;;;;;8.57;75.66;101865.55;115621;1192;70852;-79
2021/10/23 08:32:47;;;;;;;11.50;1.60;;;;;;;8.74;74.97;101868.70;115961;1192;72875;-79
2021/10/23 08:35:15;;;;;;;10.90;1.10;;;;;;;8.92;74.59;101871.18;115931;1192;62142;-78
2021/10/23 08:37:42;;;;;;;5.60;1.10;;;;;;;9.02;74.47;101875.78;115781;1191;59811;-78
2021/10/23 08:40:11;;;;;;;12.70;1.80;;;;;;;9.05;73.58;101879.03;115799;1192;75680;-77
2021/10/23 08:42:38;;;;;;;10.60;1.60;;;;;;;9.14;74.40;101878.39;115981;1191;71759;-77
2021/10/23 08:45:06;;;;;;;10.00;1.30;;;;;;;9.16;73.44;101891.61;115949;1192;73539;-77
2021/10/23 08:47:36;;;;;;;14.20;2.00;;;;;;;9.12;72.97;101892.38;115919;1192;62993;-77
2021/10/23 08:50:07;;;;;;;6.40;1.60;;;;;;;9.14;73.57;101893.61;115940;1191;60556;-77
2021/10/23 08:52:33;;;;;;;6.10;1.00;;;;;;;9.17;73.49;101897.58;115925;1191;75831;-78
2021/10/23 08:55:00;;;;;;;8.40;1.30;;;;;;;9.19;73.81;101901.42;115486;1192;71981;-78
2021/10/23 08:57:28;;;;;;;14.20;1.80;;;;;;;9.19;73.32;101905.19;115687;1192;72720;-78
2021/10/23 08:59:59;;;;;;;5.00;1.40;;;;;;;9.18;73.38;101905.75;115924;1192;62049;-78
2021/10/23 09:02:27;;;;;;;6.00;1.20;;;;;;;9.16;73.44;101895.87;115955;1192;60222;-78
2021/10/23 09:04:56;;;;;;;16.10;2.10;;;;;;;9.19;73.83;101894.73;115921;1192;74320;-78
2021/10/23 09:07:23;;;;;;;4.90;1.00;;;;;;;9.25;74.11;101899.16;115908;1191;70964;-71
2021/10/23 09:09:56;;;;;;;9.90;1.40;;;;;;;9.22;72.97;101904.16;115963;1191;72652;-73
2021/10/23 09:12:26;;;;;;;10.80;1.80;;;;;;;9.23;73.48;101901.45;115649;1192;61626;-73
2021/10/23 09:15:05;;;;;;;8.90;1.20;;;;;;;9.15;73.42;101913.59;115716;1192;60248;-73
2021/10/23 09:17:33;;;;;;;4.10;0.90;;;;;;;9.06;73.79;101918.70;115907;1191;74393;-73
2021/10/23 09:20:15;;;;;;;8.30;1.40;;;;;;;8.97;73.95;101922.03;115937;1192;70188;-73
2021/10/23 09:22:44;;;;;;;7.50;2.00;;;;;;;8.99;74.26;101932.35;115935;1192;73620;-73
2021/10/23 09:25:21;;;;;;;10.00;1.90;;;;;;;9.02;73.94;101927.84;115911;1192;61908;-73
2021/10/23 09:27:54;;;;;;;15.30;2.30;;;;;;;9.14;74.15;101924.33;115940;1191;61403;-73
2021/10/23 09:30:24;;;;;;;10.20;1.40;;;;;;;9.26;73.95;101923.64;115832;1191;74616;-73
2021/10/23 09:32:57;;;;;;;8.80;1.50;;;;;;;9.36;74.41;101928.71;115858;1192;72076;-73
2021/10/23 09:35:27;;;;;;;5.90;1.90;;;;;;;9.40;73.51;101940.34;115939;1191;72577;-73
2021/10/23 09:37:56;;;;;;;9.40;1.60;;;;;;;9.45;73.11;101930.80;115933;1192;62088;-73
2021/10/23 09:40:25;;;;;;;10.30;1.70;;;;;;;9.51;73.60;101936.43;115909;1191;61242;-73
2021/10/23 09:43:09;;;;;;;10.90;1.60;;;;;;;9.56;73.33;101945.30;115914;1192;73336;-73
2021/10/23 09:45:55;;;;;;;13.40;2.50;;;;;;;9.59;71.85;101945.73;115915;1192;72028;-73
2021/10/23 09:48:38;;;;;;;11.90;2.40;;;;;;;9.69;72.46;101945.91;115722;1191;72546;-73
2021/10/23 09:51:18;;;;;;;10.30;1.60;;;;;;;9.76;72.51;101945.43;115889;1191;62102;-73
2021/10/23 09:53:49;;;;;;;2.40;0.80;;;;;;;9.86;72.06;101951.63;115925;1191;61908;-73
2021/10/23 09:56:18;;;;;;;6.40;1.50;;;;;;;9.86;71.24;101950.38;115931;1191;75690;-73
2021/10/23 09:58:58;;;;;;;5.80;1.10;;;;;;;9.87;72.17;101950.30;115892;1191;69526;-73
2021/10/23 10:01:32;;;;;;;8.20;1.40;;;;;;;9.94;72.07;101948.07;115933;1192;72570;-73
2021/10/23 10:04:03;;;;;;;7.20;1.60;;;;;;;10.02;71.62;101952.27;115663;1192;60696;-73
2021/10/23 10:06:34;;;;;;;7.30;1.60;;;;;;;10.09;71.53;101951.63;115592;1192;59940;-74
2021/10/23 10:09:02;;;;;;;6.40;1.20;;;;;;;10.14;71.28;101956.98;115861;1192;74654;-74
2021/10/23 10:11:30;;;;;;;7.90;1.10;;;;;;;10.24;71.57;101956.63;115880;1192;71038;-73
2021/10/23 10:13:57;;;;;;;5.20;1.10;;;;;;;10.30;71.23;101959.99;115892;1192;72248;-73
2021/10/23 10:16:26;;;;;;;7.60;1.40;;;;;;;10.32;70.53;101953.41;115920;1191;61888;-73
2021/10/23 10:18:54;;;;;;;5.40;1.10;;;;;;;10.35;69.94;101953.14;115916;1191;59911;-73
2021/10/23 10:21:22;;;;;;;5.20;0.80;;;;;;;10.41;70.08;101950.52;115826;1191;73270;-73
2021/10/23 10:23:52;;;;;;;7.40;2.20;;;;;;;10.44;69.95;101950.80;115717;1191;72103;-73
2021/10/23 10:26:25;;;;;;;7.00;1.00;;;;;;;10.53;70.43;101951.48;115872;1191;73947;-73
2021/10/23 10:29:14;;;;;;;9.80;1.70;;;;;;;10.64;69.88;101962.88;115872;1191;61993;-73
2021/10/23 10:31:52;;;;;;;5.40;0.80;;;;;;;10.67;68.21;101966.13;115894;1191;60237;-73
2021/10/23 10:40:14;;;;;;;5.40;1.00;;;;;;;10.92;67.72;101961.48;115734;1192;72309;-73
2021/10/23 10:42:54;;;;;;;3.40;0.60;;;;;;;10.99;67.64;101960.77;115871;1191;62932;-73
2021/10/23 10:45:37;;;;;;;10.30;1.30;;;;;;;11.02;66.04;101968.25;115926;1192;59016;-73
2021/10/23 10:48:06;;;;;;;7.60;1.10;;;;;;;11.01;66.17;101962.34;115918;1192;74692;-73
2021/10/23 10:50:45;;;;;;;4.10;1.10;;;;;;;10.97;66.29;101963.60;115906;1192;71987;-73
2021/10/23 10:53:18;;;;;;;5.40;1.00;;;;;;;11.00;66.51;101974.64;115853;1191;72937;-73
2021/10/23 10:56:04;;;;;;;7.20;1.30;;;;;;;10.99;66.72;101965.92;115530;1192;61365;-73
2021/10/23 10:58:55;;;;;;;6.90;1.00;;;;;;;11.03;66.65;101960.03;115904;1184;60935;-74
2021/10/23 11:01:29;;;;;;;6.00;1.20;;;;;;;11.12;66.71;101970.85;115889;1191;75593;-73
2021/10/23 11:04:01;;;;;;;5.50;0.90;;;;;;;11.25;65.66;101975.84;115935;1192;72030;-73
2021/10/23 11:06:28;;;;;;;4.70;1.00;;;;;;;11.39;65.26;101968.61;115899;1192;73563;-73
2021/10/23 11:09:16;;;;;;;4.30;0.90;;;;;;;11.58;65.47;101972.09;115895;1192;63681;-73
2021/10/23 11:11:42;;;;;;;7.10;0.90;;;;;;;11.75;64.84;101968.61;115827;1192;60208;-73
2021/10/23 11:16:55;;;;;;;7.50;1.10;;;;;;;12.16;63.59;101961.61;115861;1186;70928;-73
2021/10/23 11:19:38;;;;;;;4.80;1.10;;;;;;;12.29;62.73;101959.06;115844;1191;73741;-73
2021/10/23 11:22:08;;;;;;;6.80;0.80;;;;;;;12.39;62.66;101959.40;115777;1192;63032;-74
2021/10/23 11:24:38;;;;;;;5.20;1.40;;;;;;;12.49;61.97;101962.39;115853;1192;60283;-74
2021/10/23 11:27:25;;;;;;;3.40;0.80;;;;;;;12.55;61.47;101962.03;115929;1191;74648;-74
2021/10/23 11:30:01;;;;;;;5.50;1.00;;;;;;;12.63;60.60;101966.80;115825;1192;71326;-74
2021/10/23 11:32:27;;;;;;;4.80;0.80;;;;;;;12.70;60.71;101967.27;115489;1192;72568;-73
2021/10/23 11:34:54;;;;;;;7.20;1.00;;;;;;;12.82;60.12;101959.48;115845;1192;60304;-74